Terminal Aerodrome Forecast
Issued by NWS Sterling, VA

Home | Current Version | Previous Version | Text Only | Print | Product List | Glossary On
Versions: 1 2 3 4 5 6 7 8 9 10 11 12 13 14 15
000
FTUS41 KLWX 180500 RRA
TAFMRB
TAF
KMRB 180540Z 1806/1906 13006KT P6SM FEW130
     FM180900 12005KT P6SM FEW070
     FM181700 14007KT P6SM BKN250=

USA.gov is the U.S. government's official web portal to all federal, state and local government web resources and services.